createdAt,value
2023-10-20T00:00:55.577Z,67.89
2023-10-20T00:04:07.445Z,68.01
2023-10-20T00:07:10.127Z,67.52
2023-10-20T00:10:12.890Z,67.18
2023-10-20T00:13:15.708Z,67.04
2023-10-20T00:16:27.966Z,66.87
2023-10-20T00:19:30.988Z,67.50
2023-10-20T00:22:33.136Z,67.33
2023-10-20T00:25:35.563Z,68.19
2023-10-20T00:28:38.072Z,67.93
2023-10-20T00:31:41.214Z,67.38
2023-10-20T00:34:43.513Z,66.89
2023-10-20T00:37:46.103Z,67.33
2023-10-20T00:40:51.613Z,66.94
2023-10-20T00:43:54.919Z,66.76
2023-10-20T00:46:58.304Z,66.80
2023-10-20T00:50:01.302Z,66.55
2023-10-20T00:53:04.198Z,66.55
2023-10-20T00:56:07.731Z,66.77
2023-10-20T00:59:10.771Z,66.61
2023-10-20T01:02:14.247Z,66.58
2023-10-20T01:05:17.095Z,66.56
2023-10-20T01:08:20.618Z,66.76
2023-10-20T01:11:23.078Z,66.77
2023-10-20T01:14:26.646Z,66.68
2023-10-20T01:17:30.489Z,66.61
2023-10-20T01:20:33.753Z,66.93
2023-10-20T01:23:36.013Z,67.61
2023-10-20T01:26:38.583Z,67.44
2023-10-20T01:29:41.868Z,67.80
2023-10-20T01:32:45.151Z,67.46
2023-10-20T01:35:47.946Z,67.23
2023-10-20T01:38:51.479Z,67.10
2023-10-20T01:41:53.705Z,67.05
2023-10-20T01:44:56.419Z,67.06
2023-10-20T01:47:58.913Z,67.18
2023-10-20T01:51:02.248Z,67.87
2023-10-20T01:54:04.823Z,68.48
2023-10-20T01:57:07.692Z,68.38
2023-10-20T02:00:15.076Z,68.52
2023-10-20T02:03:19.210Z,67.69
2023-10-20T02:06:21.889Z,67.30
2023-10-20T02:09:27.787Z,68.03
2023-10-20T02:12:30.037Z,68.34
2023-10-20T02:15:32.949Z,68.55
2023-10-20T02:18:36.500Z,69.74
2023-10-20T02:21:40.369Z,69.29
2023-10-20T02:24:42.828Z,67.67
2023-10-20T02:27:45.652Z,68.92
2023-10-20T02:30:47.828Z,67.94
2023-10-20T02:33:51.447Z,68.05
2023-10-20T02:36:54.096Z,68.42
2023-10-20T02:39:58.194Z,69.63
2023-10-20T02:43:00.514Z,70.70
2023-10-20T02:46:04.157Z,70.05
2023-10-20T02:49:06.528Z,69.17
2023-10-20T02:52:09.267Z,69.72
2023-10-20T02:55:11.547Z,71.41
2023-10-20T02:58:14.758Z,70.42
2023-10-20T03:01:19.368Z,68.65
2023-10-20T03:04:22.653Z,70.88
2023-10-20T03:07:28.964Z,67.85
2023-10-20T03:10:31.752Z,70.17
2023-10-20T03:13:34.813Z,70.37
2023-10-20T03:16:44.363Z,70.09
2023-10-20T03:19:46.943Z,70.13
2023-10-20T03:22:51.110Z,71.32
2023-10-20T03:25:53.378Z,71.84
2023-10-20T03:28:56.416Z,70.72
2023-10-20T03:31:59.628Z,69.37
2023-10-20T03:35:03.273Z,70.27
2023-10-20T03:38:09.332Z,70.26
2023-10-20T03:41:12.932Z,68.74
2023-10-20T03:44:15.808Z,68.03
2023-10-20T03:47:20.154Z,69.65
2023-10-20T03:50:23.157Z,70.43
2023-10-20T03:53:28.858Z,68.32
2023-10-20T03:56:31.356Z,70.21
2023-10-20T03:59:34.046Z,69.27
2023-10-20T04:02:36.405Z,69.75
2023-10-20T04:05:40.104Z,70.53
2023-10-20T04:08:42.841Z,70.06
2023-10-20T04:11:46.153Z,69.04
2023-10-20T04:14:48.666Z,69.15
2023-10-20T04:17:53.385Z,71.23
2023-10-20T04:20:59.064Z,71.58
2023-10-20T04:24:01.796Z,69.49
2023-10-20T04:27:05.971Z,71.08
2023-10-20T04:30:29.113Z,70.46
2023-10-20T04:33:50.302Z,70.86
2023-10-20T04:37:11.618Z,70.33
2023-10-20T04:40:32.722Z,70.65
2023-10-20T04:43:43.317Z,71.17
2023-10-20T04:47:01.961Z,70.39
2023-10-20T04:50:37.173Z,70.17
2023-10-20T04:54:09.183Z,70.49
2023-10-20T04:57:33.813Z,70.50
2023-10-20T05:00:39.232Z,69.85
2023-10-20T05:03:48.138Z,70.31
2023-10-20T05:07:03.374Z,69.86
2023-10-20T05:10:07.830Z,69.17
2023-10-20T05:13:10.640Z,69.02
2023-10-20T05:16:13.749Z,69.03
2023-10-20T05:19:16.059Z,69.59
2023-10-20T05:22:18.813Z,69.16
2023-10-20T05:25:21.192Z,69.31
2023-10-20T05:28:24.959Z,69.68
2023-10-20T05:31:28.509Z,68.98
2023-10-20T05:34:32.879Z,68.81
2023-10-20T05:37:35.462Z,69.73
2023-10-20T05:40:38.724Z,71.63
2023-10-20T05:43:42.446Z,72.15
2023-10-20T05:46:45.547Z,71.87
2023-10-20T05:49:47.855Z,73.77
2023-10-20T05:52:54.187Z,72.70
2023-10-20T05:55:56.207Z,70.76
2023-10-20T05:58:59.108Z,72.00
2023-10-20T06:02:04.666Z,70.00
2023-10-20T06:05:11.772Z,70.93
2023-10-20T06:08:14.357Z,69.86
2023-10-20T06:11:17.406Z,71.45
2023-10-20T06:14:19.560Z,72.99
2023-10-20T06:17:22.675Z,73.36
2023-10-20T06:20:25.687Z,74.32
2023-10-20T06:23:28.801Z,71.87
2023-10-20T06:26:31.106Z,74.07
2023-10-20T06:29:34.439Z,73.42
2023-10-20T06:32:46.587Z,73.27
2023-10-20T06:35:53.468Z,71.69
2023-10-20T06:38:55.847Z,71.55
2023-10-20T06:41:58.697Z,70.70
2023-10-20T06:45:06.296Z,71.02
2023-10-20T06:48:09.241Z,71.89
2023-10-20T06:51:11.778Z,70.61
2023-10-20T06:54:14.871Z,73.66
2023-10-20T06:57:20.399Z,74.43
2023-10-20T07:00:23.475Z,74.09
2023-10-20T07:03:27.125Z,73.34
2023-10-20T07:06:30.125Z,73.39
2023-10-20T07:09:32.310Z,71.74
2023-10-20T07:12:35.183Z,73.94
2023-10-20T07:15:40.415Z,71.63
2023-10-20T07:18:43.203Z,70.25
2023-10-20T07:21:45.450Z,70.42
2023-10-20T07:24:49.049Z,71.33
2023-10-20T07:27:51.951Z,71.72
2023-10-20T07:30:55.343Z,72.08
2023-10-20T07:33:59.615Z,69.95
2023-10-20T07:37:02.051Z,70.45
2023-10-20T07:40:06.311Z,74.23
2023-10-20T07:43:09.112Z,73.98
2023-10-20T07:46:19.150Z,74.09
2023-10-20T07:49:24.166Z,73.66
2023-10-20T07:52:27.412Z,73.73
2023-10-20T07:55:30.695Z,76.39
2023-10-20T07:58:34.140Z,74.61
2023-10-20T08:01:36.977Z,77.37
2023-10-20T08:04:42.014Z,75.65
2023-10-20T08:07:45.214Z,73.65
2023-10-20T08:10:49.040Z,73.53
2023-10-20T08:13:52.840Z,74.17
2023-10-20T08:16:57.199Z,74.18
2023-10-20T08:20:00.761Z,74.45
2023-10-20T08:23:02.987Z,75.58
2023-10-20T08:26:06.227Z,76.04
2023-10-20T08:29:12.680Z,73.81
2023-10-20T08:32:15.668Z,74.41
2023-10-20T08:35:18.409Z,77.55
2023-10-20T08:38:21.912Z,75.94
2023-10-20T08:41:25.062Z,73.50
2023-10-20T08:44:28.663Z,71.63
2023-10-20T08:47:31.646Z,73.51
2023-10-20T08:50:37.231Z,70.61
2023-10-20T08:53:41.235Z,72.68
2023-10-20T08:56:44.712Z,72.35
2023-10-20T08:59:53.942Z,75.60
2023-10-20T09:02:59.931Z,74.87
2023-10-20T09:06:11.464Z,72.82
2023-10-20T09:09:14.494Z,72.65
2023-10-20T09:12:17.411Z,71.72
2023-10-20T09:15:20.029Z,72.27
2023-10-20T09:18:23.471Z,71.62
2023-10-20T09:21:30.258Z,71.73
2023-10-20T09:24:33.215Z,70.63
2023-10-20T09:27:35.981Z,73.88
2023-10-20T09:30:40.202Z,72.31
2023-10-20T09:33:43.612Z,72.86
2023-10-20T09:36:48.820Z,71.22
2023-10-20T09:39:57.724Z,69.55
2023-10-20T09:43:25.096Z,69.13
2023-10-20T09:46:57.357Z,68.15
2023-10-20T09:50:01.245Z,66.87
2023-10-20T09:53:04.263Z,67.56
2023-10-20T09:56:07.254Z,67.68
2023-10-20T09:59:11.040Z,70.30
2023-10-20T10:02:13.454Z,69.98
2023-10-20T10:05:23.578Z,66.90
2023-10-20T10:08:26.441Z,69.92
2023-10-20T10:11:31.084Z,70.72
2023-10-20T10:14:34.213Z,70.16
2023-10-20T10:17:50.500Z,71.29
2023-10-20T10:20:53.547Z,70.24
2023-10-20T10:24:16.471Z,67.31
2023-10-20T10:27:21.047Z,67.45
2023-10-20T10:30:29.252Z,67.90
2023-10-20T10:33:31.471Z,67.82
2023-10-20T10:36:45.313Z,67.11
2023-10-20T10:39:47.580Z,69.62
2023-10-20T10:42:51.672Z,68.69
2023-10-20T10:45:55.326Z,68.02
2023-10-20T10:49:10.344Z,66.99
2023-10-20T10:52:12.482Z,67.22
2023-10-20T10:55:15.908Z,67.12
2023-10-20T10:58:18.513Z,66.43
2023-10-20T11:01:22.312Z,66.21
2023-10-20T11:04:25.829Z,65.39
2023-10-20T11:07:28.623Z,66.67
2023-10-20T11:10:32.242Z,66.69
2023-10-20T11:13:35.192Z,67.43
2023-10-20T11:16:40.635Z,66.96
2023-10-20T11:19:44.094Z,67.95
2023-10-20T11:22:46.863Z,66.85
2023-10-20T11:25:51.454Z,67.72
2023-10-20T11:28:54.328Z,68.95
2023-10-20T11:31:58.264Z,67.79
2023-10-20T11:35:00.715Z,67.44
2023-10-20T11:38:04.601Z,68.04
2023-10-20T11:41:06.893Z,67.99
2023-10-20T11:44:09.947Z,67.22
2023-10-20T11:47:12.244Z,66.34
2023-10-20T11:50:20.584Z,66.22
2023-10-20T11:53:23.717Z,67.18
2023-10-20T11:56:29.126Z,67.05
2023-10-20T11:59:34.602Z,66.98
2023-10-20T12:02:41.005Z,66.96
2023-10-20T12:05:43.916Z,67.64
2023-10-20T12:08:46.458Z,66.23
2023-10-20T12:11:48.761Z,67.59
2023-10-20T12:14:51.450Z,66.53
2023-10-20T12:17:53.649Z,65.96
2023-10-20T12:20:56.594Z,65.78
2023-10-20T12:23:59.235Z,66.00
2023-10-20T12:27:02.874Z,65.44
2023-10-20T12:30:05.891Z,65.87
2023-10-20T12:33:09.861Z,65.79
2023-10-20T12:36:17.924Z,65.56
2023-10-20T12:39:22.525Z,65.74
2023-10-20T12:42:25.744Z,65.36
2023-10-20T12:45:29.896Z,65.10
2023-10-20T12:48:32.537Z,65.38
2023-10-20T12:51:35.727Z,65.18
2023-10-20T12:54:38.017Z,65.18
2023-10-20T12:57:41.292Z,64.98
2023-10-20T13:00:43.467Z,64.93
2023-10-20T13:03:46.215Z,64.95
2023-10-20T13:06:59.815Z,64.95
2023-10-20T13:10:05.137Z,64.87
2023-10-20T13:13:10.004Z,64.97
2023-10-20T13:16:14.787Z,64.95
2023-10-20T13:19:17.158Z,64.89
2023-10-20T13:22:20.079Z,64.80
2023-10-20T13:25:24.499Z,64.92
2023-10-20T13:28:28.002Z,64.87
2023-10-20T13:31:30.342Z,65.10
2023-10-20T13:34:35.376Z,64.92
2023-10-20T13:37:39.419Z,64.92
2023-10-20T13:40:42.251Z,64.82
2023-10-20T13:43:46.033Z,64.90
2023-10-20T13:46:49.099Z,64.80
2023-10-20T13:49:51.378Z,64.82
2023-10-20T13:52:54.204Z,64.79
2023-10-20T13:55:56.535Z,64.98
2023-10-20T13:59:00.051Z,65.35
2023-10-20T14:02:02.307Z,65.59
2023-10-20T14:05:08.819Z,66.11
2023-10-20T14:08:13.046Z,65.92
2023-10-20T14:11:16.142Z,66.12
2023-10-20T14:14:18.429Z,65.68
2023-10-20T14:17:21.396Z,65.34
2023-10-20T14:20:24.369Z,65.18
2023-10-20T14:23:33.037Z,65.25
2023-10-20T14:26:35.805Z,65.21
2023-10-20T14:29:38.291Z,65.25
2023-10-20T14:32:40.587Z,65.16
2023-10-20T14:35:43.768Z,65.22
2023-10-20T14:38:47.822Z,65.17
2023-10-20T14:41:50.735Z,65.16
2023-10-20T14:44:53.157Z,65.26
2023-10-20T14:47:56.674Z,65.23
2023-10-20T14:51:02.831Z,65.33
2023-10-20T14:54:05.735Z,65.37
2023-10-20T14:57:08.525Z,65.55
2023-10-20T15:00:12.697Z,65.85
2023-10-20T15:03:22.624Z,65.66
2023-10-20T15:06:27.274Z,65.66
2023-10-20T15:09:29.619Z,65.72
2023-10-20T15:12:33.108Z,66.21
2023-10-20T15:15:37.723Z,66.21
2023-10-20T15:18:40.614Z,66.23
2023-10-20T15:21:44.366Z,66.19
2023-10-20T15:24:49.488Z,66.18
2023-10-20T15:27:52.342Z,66.24
2023-10-20T15:30:54.903Z,66.30
2023-10-20T15:33:57.047Z,66.38
2023-10-20T15:37:20.652Z,66.43
2023-10-20T15:40:23.452Z,66.43
2023-10-20T15:43:27.944Z,66.34
2023-10-20T15:46:30.635Z,67.05
2023-10-20T15:49:33.352Z,67.15
2023-10-20T15:52:36.730Z,66.99
2023-10-20T15:55:44.504Z,66.76
2023-10-20T16:02:36.307Z,66.15
2023-10-20T16:05:42.066Z,66.07
2023-10-20T16:08:59.274Z,66.15
2023-10-20T16:16:34.836Z,66.26
2023-10-20T16:20:11.999Z,66.52
2023-10-20T16:31:25.744Z,66.98
2023-10-20T16:34:29.581Z,66.99
2023-10-20T16:41:25.667Z,66.99
2023-10-20T16:44:35.399Z,66.98
2023-10-20T16:47:39.535Z,66.99
2023-10-20T16:51:19.626Z,67.15
2023-10-20T16:54:22.571Z,67.54
2023-10-20T16:57:45.841Z,67.63
2023-10-20T17:04:29.925Z,68.64
2023-10-20T17:07:32.496Z,68.20
2023-10-20T17:10:38.757Z,68.01
2023-10-20T17:13:41.690Z,67.58
2023-10-20T17:16:46.905Z,67.47
2023-10-20T17:19:49.560Z,67.41
2023-10-20T17:22:51.675Z,67.40
2023-10-20T17:25:54.484Z,67.37
2023-10-20T17:28:56.652Z,67.34
2023-10-20T17:32:00.448Z,67.41
2023-10-20T17:35:02.890Z,67.36
2023-10-20T17:38:05.787Z,67.28
2023-10-20T17:41:09.187Z,67.31
2023-10-20T17:44:12.372Z,67.29
2023-10-20T17:47:15.980Z,67.24
2023-10-20T17:50:18.962Z,67.21
2023-10-20T17:53:21.665Z,67.37
2023-10-20T17:56:24.533Z,67.42
2023-10-20T17:59:30.995Z,67.43
2023-10-20T18:02:35.205Z,67.45
2023-10-20T18:05:38.578Z,67.37
2023-10-20T18:12:18.631Z,67.39
2023-10-20T18:15:22.344Z,67.50
2023-10-20T18:18:33.802Z,67.54
2023-10-20T18:21:40.738Z,67.61
2023-10-20T18:24:45.442Z,67.69
2023-10-20T18:28:12.993Z,67.81
2023-10-20T18:31:37.907Z,67.99
2023-10-20T18:43:44.530Z,68.27
2023-10-20T18:47:25.128Z,68.33
2023-10-20T18:59:57.084Z,68.47
2023-10-20T19:03:00.212Z,68.44
2023-10-20T19:06:04.756Z,68.31
2023-10-20T19:09:07.444Z,68.22
2023-10-20T19:12:10.528Z,68.10
2023-10-20T19:15:33.059Z,68.06
2023-10-20T19:18:37.141Z,68.08
2023-10-20T19:21:43.829Z,67.95
2023-10-20T19:24:49.277Z,67.93
2023-10-20T19:27:52.069Z,67.79
2023-10-20T19:31:01.379Z,67.77
2023-10-20T19:34:06.207Z,67.72
2023-10-20T19:37:08.859Z,67.75
2023-10-20T19:40:11.385Z,67.85
2023-10-20T19:43:14.418Z,67.92
2023-10-20T19:46:16.858Z,67.95
2023-10-20T19:49:19.911Z,68.00
2023-10-20T19:52:22.275Z,67.96
2023-10-20T19:55:24.845Z,68.01
2023-10-20T19:58:30.507Z,68.14
2023-10-20T20:01:40.946Z,68.29
2023-10-20T20:04:43.371Z,68.38
2023-10-20T20:07:46.394Z,68.41
2023-10-20T20:10:48.651Z,68.42
2023-10-20T20:13:51.667Z,68.40
2023-10-20T20:16:54.001Z,68.58
2023-10-20T20:19:57.644Z,68.56
2023-10-20T20:23:01.828Z,68.50
2023-10-20T20:26:05.673Z,68.67
2023-10-20T20:29:08.524Z,68.69
2023-10-20T20:32:11.096Z,68.74
2023-10-20T20:35:13.489Z,68.75
2023-10-20T20:38:16.900Z,68.73
2023-10-20T20:41:19.602Z,68.68
2023-10-20T20:44:23.501Z,68.72
2023-10-20T20:47:26.199Z,68.97
2023-10-20T20:50:33.537Z,68.96
2023-10-20T20:53:36.811Z,68.85
2023-10-20T20:56:39.529Z,68.71
2023-10-20T20:59:41.912Z,68.75
2023-10-20T21:02:44.522Z,68.54
2023-10-20T21:05:46.934Z,68.49
2023-10-20T21:08:49.848Z,68.31
2023-10-20T21:11:52.201Z,68.24
2023-10-20T21:14:56.556Z,68.21
2023-10-20T21:17:59.102Z,68.29
2023-10-20T21:21:03.694Z,68.30
2023-10-20T21:24:06.977Z,68.26
2023-10-20T21:27:09.561Z,68.04
2023-10-20T21:30:12.864Z,68.08
2023-10-20T21:33:15.892Z,68.00
2023-10-20T21:36:18.285Z,68.11
2023-10-20T21:39:23.020Z,67.95
2023-10-20T21:42:25.189Z,67.93
2023-10-20T21:45:28.049Z,67.84
2023-10-20T21:48:32.322Z,67.74
2023-10-20T21:51:35.396Z,67.85
2023-10-20T21:54:37.515Z,67.79
2023-10-20T21:57:40.073Z,67.73
2023-10-20T22:00:45.948Z,67.70
2023-10-20T22:03:48.670Z,67.60
2023-10-20T22:06:51.507Z,67.53
2023-10-20T22:09:54.707Z,67.44
2023-10-20T22:12:57.920Z,67.31
2023-10-20T22:16:00.696Z,67.33
2023-10-20T22:19:03.561Z,67.23
2023-10-20T22:22:06.190Z,67.25
2023-10-20T22:25:08.893Z,67.11
2023-10-20T22:28:11.663Z,67.11
2023-10-20T22:31:13.950Z,67.08
2023-10-20T22:34:17.088Z,66.99
2023-10-20T22:37:19.542Z,67.08
2023-10-20T22:40:22.774Z,67.02
2023-10-20T22:43:24.867Z,66.95
2023-10-20T22:46:27.585Z,66.96
2023-10-20T22:49:29.677Z,66.89
2023-10-20T22:52:32.667Z,66.88
2023-10-20T22:55:35.147Z,66.82
2023-10-20T22:58:38.178Z,66.74
2023-10-20T23:01:40.698Z,66.68
2023-10-20T23:04:43.320Z,66.59
2023-10-20T23:07:45.564Z,66.55
2023-10-20T23:10:48.379Z,66.62
2023-10-20T23:13:50.399Z,66.59
2023-10-20T23:16:54.560Z,66.49
2023-10-20T23:19:58.062Z,66.54
2023-10-20T23:23:00.772Z,66.52
2023-10-20T23:26:03.796Z,66.50
2023-10-20T23:29:06.334Z,66.51
2023-10-20T23:32:10.142Z,66.50
2023-10-20T23:35:12.839Z,66.40
2023-10-20T23:38:15.309Z,66.30
2023-10-20T23:41:17.979Z,66.46
2023-10-20T23:44:20.877Z,66.54
2023-10-20T23:47:23.362Z,66.75
2023-10-20T23:50:25.795Z,66.76
2023-10-20T23:53:28.761Z,66.83
2023-10-20T23:56:31.568Z,66.88
2023-10-20T23:59:34.569Z,67.04
